sensor_id;sensor_type;location;lat;lon;timestamp;P1;durP1;ratioP1;P2;durP2;ratioP2
2542;SDS011;1116;51.502;7.414;2023-04-06T00:00:24;14.80;;;11.25;;
2542;SDS011;1116;51.502;7.414;2023-04-06T00:02:55;13.88;;;10.55;;
2542;SDS011;1116;51.502;7.414;2023-04-06T00:05:29;12.68;;;9.93;;
2542;SDS011;1116;51.502;7.414;2023-04-06T00:08:00;13.18;;;10.30;;
2542;SDS011;1116;51.502;7.414;2023-04-06T00:10:34;14.73;;;10.75;;
2542;SDS011;1116;51.502;7.414;2023-04-06T00:13:05;14.20;;;10.20;;
2542;SDS011;1116;51.502;7.414;2023-04-06T00:15:37;16.17;;;10.23;;
2542;SDS011;1116;51.502;7.414;2023-04-06T00:18:08;13.10;;;10.60;;
2542;SDS011;1116;51.502;7.414;2023-04-06T00:20:42;13.65;;;10.55;;
2542;SDS011;1116;51.502;7.414;2023-04-06T00:23:13;12.38;;;9.68;;
2542;SDS011;1116;51.502;7.414;2023-04-06T00:25:44;12.93;;;10.60;;
2542;SDS011;1116;51.502;7.414;2023-04-06T00:28:15;13.95;;;10.25;;
2542;SDS011;1116;51.502;7.414;2023-04-06T00:30:52;13.63;;;10.52;;
2542;SDS011;1116;51.502;7.414;2023-04-06T00:33:23;14.00;;;11.23;;
2542;SDS011;1116;51.502;7.414;2023-04-06T00:35:57;14.68;;;10.65;;
2542;SDS011;1116;51.502;7.414;2023-04-06T00:38:28;14.00;;;10.77;;
2542;SDS011;1116;51.502;7.414;2023-04-06T00:40:59;12.45;;;9.82;;
2542;SDS011;1116;51.502;7.414;2023-04-06T00:43:31;15.50;;;10.93;;
2542;SDS011;1116;51.502;7.414;2023-04-06T00:46:02;15.43;;;10.52;;
2542;SDS011;1116;51.502;7.414;2023-04-06T00:48:33;13.55;;;10.05;;
2542;SDS011;1116;51.502;7.414;2023-04-06T00:51:10;15.13;;;11.60;;
2542;SDS011;1116;51.502;7.414;2023-04-06T00:53:41;16.40;;;10.95;;
2542;SDS011;1116;51.502;7.414;2023-04-06T00:56:15;11.52;;;10.05;;
2542;SDS011;1116;51.502;7.414;2023-04-06T00:58:46;14.00;;;10.13;;
2542;SDS011;1116;51.502;7.414;2023-04-06T01:01:17;14.93;;;11.63;;
2542;SDS011;1116;51.502;7.414;2023-04-06T01:03:50;12.23;;;9.68;;
2542;SDS011;1116;51.502;7.414;2023-04-06T01:06:25;13.32;;;10.60;;
2542;SDS011;1116;51.502;7.414;2023-04-06T01:08:59;11.30;;;10.00;;
2542;SDS011;1116;51.502;7.414;2023-04-06T01:11:30;14.10;;;9.68;;
2542;SDS011;1116;51.502;7.414;2023-04-06T01:14:04;12.18;;;10.05;;
2542;SDS011;1116;51.502;7.414;2023-04-06T01:16:35;12.32;;;9.45;;
2542;SDS011;1116;51.502;7.414;2023-04-06T01:19:09;14.90;;;11.25;;
2542;SDS011;1116;51.502;7.414;2023-04-06T01:21:43;11.50;;;9.55;;
2542;SDS011;1116;51.502;7.414;2023-04-06T01:24:16;14.52;;;10.55;;
2542;SDS011;1116;51.502;7.414;2023-04-06T01:26:47;13.68;;;10.13;;
2542;SDS011;1116;51.502;7.414;2023-04-06T01:29:18;11.68;;;9.80;;
2542;SDS011;1116;51.502;7.414;2023-04-06T01:31:49;15.38;;;10.38;;
2542;SDS011;1116;51.502;7.414;2023-04-06T01:34:20;14.00;;;10.13;;
2542;SDS011;1116;51.502;7.414;2023-04-06T01:36:51;15.32;;;10.10;;
2542;SDS011;1116;51.502;7.414;2023-04-06T01:39:25;13.38;;;10.15;;
2542;SDS011;1116;51.502;7.414;2023-04-06T01:41:56;13.02;;;9.90;;
2542;SDS011;1116;51.502;7.414;2023-04-06T01:44:27;15.52;;;11.25;;
2542;SDS011;1116;51.502;7.414;2023-04-06T01:47:05;11.82;;;9.55;;
2542;SDS011;1116;51.502;7.414;2023-04-06T01:49:36;14.52;;;10.80;;
2542;SDS011;1116;51.502;7.414;2023-04-06T01:52:07;14.90;;;10.30;;
2542;SDS011;1116;51.502;7.414;2023-04-06T01:54:41;14.10;;;10.82;;
2542;SDS011;1116;51.502;7.414;2023-04-06T01:57:12;13.75;;;10.55;;
2542;SDS011;1116;51.502;7.414;2023-04-06T01:59:43;12.10;;;10.50;;
2542;SDS011;1116;51.502;7.414;2023-04-06T02:02:14;15.65;;;11.40;;
2542;SDS011;1116;51.502;7.414;2023-04-06T02:04:45;16.23;;;10.30;;
2542;SDS011;1116;51.502;7.414;2023-04-06T02:07:16;14.05;;;10.18;;
2542;SDS011;1116;51.502;7.414;2023-04-06T02:09:50;15.23;;;10.27;;
2542;SDS011;1116;51.502;7.414;2023-04-06T02:12:23;12.00;;;9.35;;
2542;SDS011;1116;51.502;7.414;2023-04-06T02:14:54;14.35;;;10.68;;
2542;SDS011;1116;51.502;7.414;2023-04-06T02:17:25;16.10;;;11.27;;
2542;SDS011;1116;51.502;7.414;2023-04-06T02:19:56;13.20;;;10.77;;
2542;SDS011;1116;51.502;7.414;2023-04-06T02:22:27;14.57;;;10.93;;
2542;SDS011;1116;51.502;7.414;2023-04-06T02:25:01;11.93;;;10.10;;
2542;SDS011;1116;51.502;7.414;2023-04-06T02:27:36;12.25;;;10.25;;
2542;SDS011;1116;51.502;7.414;2023-04-06T02:30:10;13.88;;;10.20;;
2542;SDS011;1116;51.502;7.414;2023-04-06T02:32:41;13.90;;;10.55;;
2542;SDS011;1116;51.502;7.414;2023-04-06T02:35:14;13.77;;;10.00;;
2542;SDS011;1116;51.502;7.414;2023-04-06T02:37:45;13.00;;;10.30;;
2542;SDS011;1116;51.502;7.414;2023-04-06T02:40:19;13.30;;;10.15;;
2542;SDS011;1116;51.502;7.414;2023-04-06T02:42:50;11.30;;;9.55;;
2542;SDS011;1116;51.502;7.414;2023-04-06T02:45:21;11.35;;;9.48;;
2542;SDS011;1116;51.502;7.414;2023-04-06T02:47:53;10.88;;;9.38;;
2542;SDS011;1116;51.502;7.414;2023-04-06T02:50:24;14.23;;;10.43;;
2542;SDS011;1116;51.502;7.414;2023-04-06T02:52:55;12.77;;;10.45;;
2542;SDS011;1116;51.502;7.414;2023-04-06T02:55:29;13.48;;;10.80;;
2542;SDS011;1116;51.502;7.414;2023-04-06T02:58:00;12.75;;;10.07;;
2542;SDS011;1116;51.502;7.414;2023-04-06T03:00:32;14.23;;;9.98;;
2542;SDS011;1116;51.502;7.414;2023-04-06T03:03:03;15.00;;;10.68;;
2542;SDS011;1116;51.502;7.414;2023-04-06T03:05:37;12.15;;;9.73;;
2542;SDS011;1116;51.502;7.414;2023-04-06T03:08:08;15.05;;;9.77;;
2542;SDS011;1116;51.502;7.414;2023-04-06T03:10:44;14.85;;;10.65;;
2542;SDS011;1116;51.502;7.414;2023-04-06T03:13:15;13.70;;;10.75;;
2542;SDS011;1116;51.502;7.414;2023-04-06T03:15:46;15.88;;;11.07;;
2542;SDS011;1116;51.502;7.414;2023-04-06T03:18:20;13.07;;;9.90;;
2542;SDS011;1116;51.502;7.414;2023-04-06T03:20:52;11.65;;;9.18;;
2542;SDS011;1116;51.502;7.414;2023-04-06T03:23:24;12.25;;;9.68;;
2542;SDS011;1116;51.502;7.414;2023-04-06T03:25:58;13.43;;;10.00;;
2542;SDS011;1116;51.502;7.414;2023-04-06T03:28:29;11.82;;;10.52;;
2542;SDS011;1116;51.502;7.414;2023-04-06T03:31:00;11.48;;;9.23;;
2542;SDS011;1116;51.502;7.414;2023-04-06T03:33:31;13.20;;;10.35;;
2542;SDS011;1116;51.502;7.414;2023-04-06T03:36:03;14.40;;;10.70;;
2542;SDS011;1116;51.502;7.414;2023-04-06T03:38:35;12.90;;;10.00;;
2542;SDS011;1116;51.502;7.414;2023-04-06T03:41:10;13.50;;;9.85;;
2542;SDS011;1116;51.502;7.414;2023-04-06T03:43:42;13.45;;;9.88;;
2542;SDS011;1116;51.502;7.414;2023-04-06T03:46:19;16.85;;;9.60;;
2542;SDS011;1116;51.502;7.414;2023-04-06T03:48:53;13.77;;;9.80;;
2542;SDS011;1116;51.502;7.414;2023-04-06T03:51:24;11.90;;;9.98;;
2542;SDS011;1116;51.502;7.414;2023-04-06T03:53:57;12.05;;;10.60;;
2542;SDS011;1116;51.502;7.414;2023-04-06T03:56:33;12.40;;;9.75;;
2542;SDS011;1116;51.502;7.414;2023-04-06T03:59:04;15.15;;;10.07;;
2542;SDS011;1116;51.502;7.414;2023-04-06T04:01:38;12.95;;;9.50;;
2542;SDS011;1116;51.502;7.414;2023-04-06T04:04:09;14.50;;;9.57;;
2542;SDS011;1116;51.502;7.414;2023-04-06T04:06:41;13.85;;;10.23;;
2542;SDS011;1116;51.502;7.414;2023-04-06T04:09:12;13.77;;;10.00;;
2542;SDS011;1116;51.502;7.414;2023-04-06T04:11:48;12.80;;;10.23;;
2542;SDS011;1116;51.502;7.414;2023-04-06T04:14:19;12.75;;;9.80;;
2542;SDS011;1116;51.502;7.414;2023-04-06T04:16:50;13.05;;;9.60;;
2542;SDS011;1116;51.502;7.414;2023-04-06T04:19:21;14.18;;;9.80;;
2542;SDS011;1116;51.502;7.414;2023-04-06T04:21:52;14.18;;;10.05;;
2542;SDS011;1116;51.502;7.414;2023-04-06T04:24:25;13.77;;;10.65;;
2542;SDS011;1116;51.502;7.414;2023-04-06T04:26:59;13.68;;;9.90;;
2542;SDS011;1116;51.502;7.414;2023-04-06T04:29:32;12.00;;;9.48;;
2542;SDS011;1116;51.502;7.414;2023-04-06T04:32:05;13.13;;;10.38;;
2542;SDS011;1116;51.502;7.414;2023-04-06T04:34:36;11.48;;;9.48;;
2542;SDS011;1116;51.502;7.414;2023-04-06T04:37:07;11.10;;;9.15;;
2542;SDS011;1116;51.502;7.414;2023-04-06T04:39:38;21.65;;;9.50;;
2542;SDS011;1116;51.502;7.414;2023-04-06T04:42:12;13.48;;;10.82;;
2542;SDS011;1116;51.502;7.414;2023-04-06T04:44:44;11.60;;;9.82;;
2542;SDS011;1116;51.502;7.414;2023-04-06T04:47:16;12.80;;;10.00;;
2542;SDS011;1116;51.502;7.414;2023-04-06T04:49:47;13.98;;;9.73;;
2542;SDS011;1116;51.502;7.414;2023-04-06T04:52:18;12.60;;;9.63;;
2542;SDS011;1116;51.502;7.414;2023-04-06T04:54:49;14.48;;;10.48;;
2542;SDS011;1116;51.502;7.414;2023-04-06T04:57:25;13.23;;;10.00;;
2542;SDS011;1116;51.502;7.414;2023-04-06T04:59:56;11.68;;;9.52;;
2542;SDS011;1116;51.502;7.414;2023-04-06T05:02:27;13.57;;;10.05;;
2542;SDS011;1116;51.502;7.414;2023-04-06T05:04:58;12.52;;;9.70;;
2542;SDS011;1116;51.502;7.414;2023-04-06T05:07:32;14.02;;;9.70;;
2542;SDS011;1116;51.502;7.414;2023-04-06T05:10:10;13.07;;;9.27;;
2542;SDS011;1116;51.502;7.414;2023-04-06T05:12:43;12.88;;;9.73;;
2542;SDS011;1116;51.502;7.414;2023-04-06T05:15:14;13.20;;;10.55;;
2542;SDS011;1116;51.502;7.414;2023-04-06T05:17:45;14.57;;;9.88;;
2542;SDS011;1116;51.502;7.414;2023-04-06T05:20:16;14.52;;;10.30;;
2542;SDS011;1116;51.502;7.414;2023-04-06T05:22:47;14.35;;;10.30;;
2542;SDS011;1116;51.502;7.414;2023-04-06T05:25:20;12.75;;;9.90;;
2542;SDS011;1116;51.502;7.414;2023-04-06T05:27:54;11.00;;;9.30;;
2542;SDS011;1116;51.502;7.414;2023-04-06T05:30:25;12.27;;;9.60;;
2542;SDS011;1116;51.502;7.414;2023-04-06T05:33:00;12.27;;;9.63;;
2542;SDS011;1116;51.502;7.414;2023-04-06T05:35:35;10.38;;;8.43;;
2542;SDS011;1116;51.502;7.414;2023-04-06T05:38:07;12.32;;;8.52;;
2542;SDS011;1116;51.502;7.414;2023-04-06T05:40:39;10.57;;;8.02;;
2542;SDS011;1116;51.502;7.414;2023-04-06T05:43:13;10.00;;;7.93;;
2542;SDS011;1116;51.502;7.414;2023-04-06T05:45:45;13.57;;;8.52;;
2542;SDS011;1116;51.502;7.414;2023-04-06T05:48:16;10.52;;;7.68;;
2542;SDS011;1116;51.502;7.414;2023-04-06T05:50:48;8.88;;;7.88;;
2542;SDS011;1116;51.502;7.414;2023-04-06T05:53:19;10.90;;;8.02;;
2542;SDS011;1116;51.502;7.414;2023-04-06T05:55:54;10.48;;;7.75;;
2542;SDS011;1116;51.502;7.414;2023-04-06T05:58:27;11.48;;;8.02;;
2542;SDS011;1116;51.502;7.414;2023-04-06T06:00:58;9.48;;;7.68;;
2542;SDS011;1116;51.502;7.414;2023-04-06T06:03:33;10.57;;;6.82;;
2542;SDS011;1116;51.502;7.414;2023-04-06T06:06:04;9.37;;;7.37;;
2542;SDS011;1116;51.502;7.414;2023-04-06T06:08:35;9.10;;;7.67;;
2542;SDS011;1116;51.502;7.414;2023-04-06T06:11:06;9.83;;;7.80;;
2542;SDS011;1116;51.502;7.414;2023-04-06T06:13:40;9.40;;;6.80;;
2542;SDS011;1116;51.502;7.414;2023-04-06T06:16:11;9.23;;;6.97;;
2542;SDS011;1116;51.502;7.414;2023-04-06T06:18:42;8.70;;;6.70;;
2542;SDS011;1116;51.502;7.414;2023-04-06T06:21:13;10.47;;;7.00;;
2542;SDS011;1116;51.502;7.414;2023-04-06T06:23:44;9.40;;;7.30;;
2542;SDS011;1116;51.502;7.414;2023-04-06T06:26:16;7.40;;;6.70;;
2542;SDS011;1116;51.502;7.414;2023-04-06T06:28:49;6.90;;;6.30;;
2542;SDS011;1116;51.502;7.414;2023-04-06T06:31:20;7.87;;;6.50;;
2542;SDS011;1116;51.502;7.414;2023-04-06T06:33:52;7.73;;;6.90;;
2542;SDS011;1116;51.502;7.414;2023-04-06T06:36:23;11.10;;;7.30;;
2542;SDS011;1116;51.502;7.414;2023-04-06T06:38:55;7.13;;;6.47;;
2542;SDS011;1116;51.502;7.414;2023-04-06T06:41:28;7.40;;;6.80;;
2542;SDS011;1116;51.502;7.414;2023-04-06T06:44:04;9.10;;;7.20;;
2542;SDS011;1116;51.502;7.414;2023-04-06T06:46:35;7.70;;;7.00;;
2542;SDS011;1116;51.502;7.414;2023-04-06T06:49:07;7.20;;;6.50;;
2542;SDS011;1116;51.502;7.414;2023-04-06T06:51:42;8.07;;;7.27;;
2542;SDS011;1116;51.502;7.414;2023-04-06T06:54:15;7.73;;;6.93;;
2542;SDS011;1116;51.502;7.414;2023-04-06T06:56:46;8.17;;;7.37;;
2542;SDS011;1116;51.502;7.414;2023-04-06T06:59:20;9.50;;;7.63;;
2542;SDS011;1116;51.502;7.414;2023-04-06T07:01:51;9.30;;;8.10;;
2542;SDS011;1116;51.502;7.414;2023-04-06T07:04:22;8.10;;;7.10;;
2542;SDS011;1116;51.502;7.414;2023-04-06T07:06:53;7.93;;;7.20;;
2542;SDS011;1116;51.502;7.414;2023-04-06T07:09:27;7.33;;;6.73;;
2542;SDS011;1116;51.502;7.414;2023-04-06T07:11:58;10.23;;;7.10;;
2542;SDS011;1116;51.502;7.414;2023-04-06T07:14:34;8.60;;;7.20;;
2542;SDS011;1116;51.502;7.414;2023-04-06T07:17:06;8.87;;;8.00;;
2542;SDS011;1116;51.502;7.414;2023-04-06T07:19:37;8.50;;;7.60;;
2542;SDS011;1116;51.502;7.414;2023-04-06T07:22:09;7.53;;;6.83;;
2542;SDS011;1116;51.502;7.414;2023-04-06T07:24:40;7.50;;;6.80;;
2542;SDS011;1116;51.502;7.414;2023-04-06T07:27:11;7.93;;;6.70;;
2542;SDS011;1116;51.502;7.414;2023-04-06T07:29:46;8.90;;;7.27;;
2542;SDS011;1116;51.502;7.414;2023-04-06T07:32:17;8.40;;;7.47;;
2542;SDS011;1116;51.502;7.414;2023-04-06T07:34:48;9.23;;;7.27;;
2542;SDS011;1116;51.502;7.414;2023-04-06T07:37:22;9.30;;;7.27;;
2542;SDS011;1116;51.502;7.414;2023-04-06T07:39:53;7.60;;;6.80;;
2542;SDS011;1116;51.502;7.414;2023-04-06T07:42:24;7.83;;;6.80;;
2542;SDS011;1116;51.502;7.414;2023-04-06T07:44:58;8.93;;;7.50;;
2542;SDS011;1116;51.502;7.414;2023-04-06T07:47:29;9.13;;;7.60;;
2542;SDS011;1116;51.502;7.414;2023-04-06T07:50:00;8.33;;;7.53;;
2542;SDS011;1116;51.502;7.414;2023-04-06T07:52:32;7.87;;;7.07;;
2542;SDS011;1116;51.502;7.414;2023-04-06T07:55:05;9.27;;;6.90;;
2542;SDS011;1116;51.502;7.414;2023-04-06T07:57:36;8.80;;;8.00;;
2542;SDS011;1116;51.502;7.414;2023-04-06T08:00:10;7.80;;;7.00;;
2542;SDS011;1116;51.502;7.414;2023-04-06T08:02:43;8.57;;;7.37;;
2542;SDS011;1116;51.502;7.414;2023-04-06T08:05:14;7.07;;;6.37;;
2542;SDS011;1116;51.502;7.414;2023-04-06T08:07:47;7.97;;;7.20;;
2542;SDS011;1116;51.502;7.414;2023-04-06T08:10:18;8.33;;;7.10;;
2542;SDS011;1116;51.502;7.414;2023-04-06T08:12:52;9.37;;;8.00;;
2542;SDS011;1116;51.502;7.414;2023-04-06T08:15:26;9.13;;;7.77;;
2542;SDS011;1116;51.502;7.414;2023-04-06T08:17:58;10.70;;;8.80;;
2542;SDS011;1116;51.502;7.414;2023-04-06T08:20:31;8.80;;;7.43;;
2542;SDS011;1116;51.502;7.414;2023-04-06T08:23:02;7.73;;;6.93;;
2542;SDS011;1116;51.502;7.414;2023-04-06T08:25:34;9.13;;;7.43;;
2542;SDS011;1116;51.502;7.414;2023-04-06T08:28:08;8.20;;;7.40;;
2542;SDS011;1116;51.502;7.414;2023-04-06T08:30:42;9.47;;;8.03;;
2542;SDS011;1116;51.502;7.414;2023-04-06T08:33:14;9.30;;;7.90;;
2542;SDS011;1116;51.502;7.414;2023-04-06T08:35:46;8.20;;;7.33;;
2542;SDS011;1116;51.502;7.414;2023-04-06T08:38:19;8.70;;;7.80;;
2542;SDS011;1116;51.502;7.414;2023-04-06T08:40:49;9.63;;;8.13;;
2542;SDS011;1116;51.502;7.414;2023-04-06T08:43:21;9.23;;;8.00;;
2542;SDS011;1116;51.502;7.414;2023-04-06T08:45:57;9.87;;;7.90;;
2542;SDS011;1116;51.502;7.414;2023-04-06T08:48:29;10.03;;;7.43;;
2542;SDS011;1116;51.502;7.414;2023-04-06T08:51:00;8.43;;;7.43;;
2542;SDS011;1116;51.502;7.414;2023-04-06T08:53:32;10.63;;;7.87;;
2542;SDS011;1116;51.502;7.414;2023-04-06T08:56:03;8.83;;;7.67;;
2542;SDS011;1116;51.502;7.414;2023-04-06T08:58:35;9.63;;;8.07;;
2542;SDS011;1116;51.502;7.414;2023-04-06T09:01:12;9.43;;;8.43;;
2542;SDS011;1116;51.502;7.414;2023-04-06T09:03:44;12.67;;;8.90;;
2542;SDS011;1116;51.502;7.414;2023-04-06T09:06:16;10.43;;;9.33;;
2542;SDS011;1116;51.502;7.414;2023-04-06T09:08:48;9.33;;;8.33;;
2542;SDS011;1116;51.502;7.414;2023-04-06T09:11:19;9.83;;;8.80;;
2542;SDS011;1116;51.502;7.414;2023-04-06T09:13:50;9.77;;;8.70;;
2542;SDS011;1116;51.502;7.414;2023-04-06T09:16:25;11.40;;;9.60;;
2542;SDS011;1116;51.502;7.414;2023-04-06T09:19:03;12.10;;;10.13;;
2542;SDS011;1116;51.502;7.414;2023-04-06T09:21:35;12.00;;;10.80;;
2542;SDS011;1116;51.502;7.414;2023-04-06T09:24:07;12.03;;;10.80;;
2542;SDS011;1116;51.502;7.414;2023-04-06T09:26:45;12.17;;;10.90;;
2542;SDS011;1116;51.502;7.414;2023-04-06T09:29:23;11.20;;;10.00;;
2542;SDS011;1116;51.502;7.414;2023-04-06T09:32:04;12.33;;;10.50;;
2542;SDS011;1116;51.502;7.414;2023-04-06T09:34:38;11.50;;;9.97;;
2542;SDS011;1116;51.502;7.414;2023-04-06T09:37:12;12.53;;;9.87;;
2542;SDS011;1116;51.502;7.414;2023-04-06T09:39:47;13.37;;;10.30;;
2542;SDS011;1116;51.502;7.414;2023-04-06T09:42:32;12.27;;;10.73;;
2542;SDS011;1116;51.502;7.414;2023-04-06T09:45:04;10.90;;;9.77;;
2542;SDS011;1116;51.502;7.414;2023-04-06T09:47:39;12.17;;;9.83;;
2542;SDS011;1116;51.502;7.414;2023-04-06T09:50:13;11.80;;;10.53;;
2542;SDS011;1116;51.502;7.414;2023-04-06T09:52:46;12.47;;;10.20;;
2542;SDS011;1116;51.502;7.414;2023-04-06T09:55:20;10.90;;;9.67;;
2542;SDS011;1116;51.502;7.414;2023-04-06T09:57:57;12.30;;;10.30;;
2542;SDS011;1116;51.502;7.414;2023-04-06T10:00:39;12.43;;;10.93;;
2542;SDS011;1116;51.502;7.414;2023-04-06T10:03:18;16.63;;;11.13;;
2542;SDS011;1116;51.502;7.414;2023-04-06T10:06:02;14.47;;;11.20;;
2542;SDS011;1116;51.502;7.414;2023-04-06T10:08:35;14.00;;;12.10;;
2542;SDS011;1116;51.502;7.414;2023-04-06T10:11:10;14.13;;;12.07;;
2542;SDS011;1116;51.502;7.414;2023-04-06T10:13:41;14.83;;;11.50;;
2542;SDS011;1116;51.502;7.414;2023-04-06T10:16:16;14.90;;;11.97;;
2542;SDS011;1116;51.502;7.414;2023-04-06T10:18:50;13.57;;;12.00;;
2542;SDS011;1116;51.502;7.414;2023-04-06T10:21:24;16.93;;;12.60;;
2542;SDS011;1116;51.502;7.414;2023-04-06T10:23:59;17.10;;;13.60;;
2542;SDS011;1116;51.502;7.414;2023-04-06T10:26:31;19.57;;;13.97;;
2542;SDS011;1116;51.502;7.414;2023-04-06T10:29:02;16.93;;;12.83;;
2542;SDS011;1116;51.502;7.414;2023-04-06T10:31:39;18.30;;;14.30;;
2542;SDS011;1116;51.502;7.414;2023-04-06T10:34:14;16.10;;;12.60;;
2542;SDS011;1116;51.502;7.414;2023-04-06T10:36:45;14.67;;;12.53;;
2542;SDS011;1116;51.502;7.414;2023-04-06T10:39:23;16.17;;;13.13;;
2542;SDS011;1116;51.502;7.414;2023-04-06T10:41:57;17.33;;;12.40;;
2542;SDS011;1116;51.502;7.414;2023-04-06T10:44:41;14.53;;;12.70;;
2542;SDS011;1116;51.502;7.414;2023-04-06T10:47:16;17.67;;;13.43;;
2542;SDS011;1116;51.502;7.414;2023-04-06T10:49:53;16.33;;;13.73;;
2542;SDS011;1116;51.502;7.414;2023-04-06T10:52:24;16.17;;;13.17;;
2542;SDS011;1116;51.502;7.414;2023-04-06T10:55:00;16.97;;;14.47;;
2542;SDS011;1116;51.502;7.414;2023-04-06T10:57:32;16.00;;;13.80;;
2542;SDS011;1116;51.502;7.414;2023-04-06T11:00:05;14.53;;;12.87;;
2542;SDS011;1116;51.502;7.414;2023-04-06T11:02:39;18.97;;;13.37;;
2542;SDS011;1116;51.502;7.414;2023-04-06T11:05:18;16.77;;;13.70;;
2542;SDS011;1116;51.502;7.414;2023-04-06T11:07:49;16.30;;;13.23;;
2542;SDS011;1116;51.502;7.414;2023-04-06T11:10:21;14.40;;;12.43;;
2542;SDS011;1116;51.502;7.414;2023-04-06T11:12:53;14.50;;;12.03;;
2542;SDS011;1116;51.502;7.414;2023-04-06T11:15:25;15.03;;;13.43;;
2542;SDS011;1116;51.502;7.414;2023-04-06T11:17:57;17.43;;;14.23;;
2542;SDS011;1116;51.502;7.414;2023-04-06T11:20:36;14.97;;;13.40;;
2542;SDS011;1116;51.502;7.414;2023-04-06T11:23:09;16.13;;;13.07;;
2542;SDS011;1116;51.502;7.414;2023-04-06T11:25:58;15.60;;;13.43;;
2542;SDS011;1116;51.502;7.414;2023-04-06T11:28:48;15.93;;;12.50;;
2542;SDS011;1116;51.502;7.414;2023-04-06T11:31:30;17.80;;;14.63;;
2542;SDS011;1116;51.502;7.414;2023-04-06T11:34:32;13.57;;;12.17;;
2542;SDS011;1116;51.502;7.414;2023-04-06T11:37:18;15.37;;;13.30;;
2542;SDS011;1116;51.502;7.414;2023-04-06T11:39:50;17.73;;;13.80;;
2542;SDS011;1116;51.502;7.414;2023-04-06T11:42:27;15.57;;;13.13;;
2542;SDS011;1116;51.502;7.414;2023-04-06T11:44:59;14.97;;;13.47;;
2542;SDS011;1116;51.502;7.414;2023-04-06T11:47:32;15.07;;;13.23;;
2542;SDS011;1116;51.502;7.414;2023-04-06T11:50:07;15.67;;;13.73;;
2542;SDS011;1116;51.502;7.414;2023-04-06T11:52:41;15.03;;;13.37;;
2542;SDS011;1116;51.502;7.414;2023-04-06T11:55:13;17.63;;;15.13;;
2542;SDS011;1116;51.502;7.414;2023-04-06T11:57:45;18.97;;;14.77;;
2542;SDS011;1116;51.502;7.414;2023-04-06T12:00:20;17.77;;;14.83;;
2542;SDS011;1116;51.502;7.414;2023-04-06T12:02:52;18.57;;;15.00;;
2542;SDS011;1116;51.502;7.414;2023-04-06T12:05:23;17.50;;;15.17;;
2542;SDS011;1116;51.502;7.414;2023-04-06T12:07:57;18.30;;;16.40;;
2542;SDS011;1116;51.502;7.414;2023-04-06T12:10:30;18.73;;;15.60;;
2542;SDS011;1116;51.502;7.414;2023-04-06T12:13:01;17.80;;;15.57;;
2542;SDS011;1116;51.502;7.414;2023-04-06T12:15:32;18.70;;;16.17;;
2542;SDS011;1116;51.502;7.414;2023-04-06T12:18:03;18.17;;;16.20;;
2542;SDS011;1116;51.502;7.414;2023-04-06T12:20:34;19.10;;;15.50;;
2542;SDS011;1116;51.502;7.414;2023-04-06T12:23:08;14.53;;;13.03;;
2542;SDS011;1116;51.502;7.414;2023-04-06T12:25:39;16.00;;;14.00;;
2542;SDS011;1116;51.502;7.414;2023-04-06T12:28:10;16.80;;;15.00;;
2542;SDS011;1116;51.502;7.414;2023-04-06T12:30:41;18.67;;;14.47;;
2542;SDS011;1116;51.502;7.414;2023-04-06T12:33:12;16.73;;;14.93;;
2542;SDS011;1116;51.502;7.414;2023-04-06T12:35:43;16.60;;;13.73;;
2542;SDS011;1116;51.502;7.414;2023-04-06T12:38:17;14.60;;;12.93;;
2542;SDS011;1116;51.502;7.414;2023-04-06T12:40:48;14.43;;;12.47;;
2542;SDS011;1116;51.502;7.414;2023-04-06T12:43:19;13.80;;;12.30;;
2542;SDS011;1116;51.502;7.414;2023-04-06T12:45:50;14.07;;;12.57;;
2542;SDS011;1116;51.502;7.414;2023-04-06T12:48:21;15.10;;;12.37;;
2542;SDS011;1116;51.502;7.414;2023-04-06T12:50:57;13.60;;;12.20;;
2542;SDS011;1116;51.502;7.414;2023-04-06T12:53:32;13.40;;;11.43;;
2542;SDS011;1116;51.502;7.414;2023-04-06T12:56:10;14.13;;;12.40;;
2542;SDS011;1116;51.502;7.414;2023-04-06T12:58:43;12.73;;;11.40;;
2542;SDS011;1116;51.502;7.414;2023-04-06T13:01:14;14.07;;;12.57;;
2542;SDS011;1116;51.502;7.414;2023-04-06T13:03:49;15.50;;;12.27;;
2542;SDS011;1116;51.502;7.414;2023-04-06T13:06:20;13.20;;;11.40;;
2542;SDS011;1116;51.502;7.414;2023-04-06T13:08:57;16.67;;;11.53;;
2542;SDS011;1116;51.502;7.414;2023-04-06T13:11:29;12.60;;;11.30;;
2542;SDS011;1116;51.502;7.414;2023-04-06T13:14:00;14.93;;;12.30;;
2542;SDS011;1116;51.502;7.414;2023-04-06T13:16:31;14.80;;;12.10;;
2542;SDS011;1116;51.502;7.414;2023-04-06T13:19:02;13.37;;;11.97;;
2542;SDS011;1116;51.502;7.414;2023-04-06T13:21:34;13.43;;;11.33;;
2542;SDS011;1116;51.502;7.414;2023-04-06T13:24:11;12.43;;;11.03;;
2542;SDS011;1116;51.502;7.414;2023-04-06T13:26:44;13.90;;;11.50;;
2542;SDS011;1116;51.502;7.414;2023-04-06T13:29:15;12.87;;;11.50;;
2542;SDS011;1116;51.502;7.414;2023-04-06T13:31:49;13.27;;;11.87;;
2542;SDS011;1116;51.502;7.414;2023-04-06T13:34:20;14.30;;;12.07;;
2542;SDS011;1116;51.502;7.414;2023-04-06T13:36:52;14.87;;;13.27;;
2542;SDS011;1116;51.502;7.414;2023-04-06T13:39:26;14.93;;;12.60;;
2542;SDS011;1116;51.502;7.414;2023-04-06T13:41:57;26.30;;;14.90;;
2542;SDS011;1116;51.502;7.414;2023-04-06T13:44:30;14.17;;;12.20;;
2542;SDS011;1116;51.502;7.414;2023-04-06T13:47:01;14.27;;;12.40;;
2542;SDS011;1116;51.502;7.414;2023-04-06T13:49:33;14.60;;;12.03;;
2542;SDS011;1116;51.502;7.414;2023-04-06T13:52:04;12.87;;;11.27;;
2542;SDS011;1116;51.502;7.414;2023-04-06T13:54:37;15.50;;;11.30;;
2542;SDS011;1116;51.502;7.414;2023-04-06T13:57:08;13.27;;;10.67;;
2542;SDS011;1116;51.502;7.414;2023-04-06T13:59:46;12.57;;;10.70;;
2542;SDS011;1116;51.502;7.414;2023-04-06T14:02:18;10.93;;;9.83;;
2542;SDS011;1116;51.502;7.414;2023-04-06T14:04:55;11.70;;;9.70;;
2542;SDS011;1116;51.502;7.414;2023-04-06T14:07:26;13.37;;;9.73;;
2542;SDS011;1116;51.502;7.414;2023-04-06T14:10:00;9.80;;;8.83;;
2542;SDS011;1116;51.502;7.414;2023-04-06T14:12:30;9.00;;;8.10;;
2542;SDS011;1116;51.502;7.414;2023-04-06T14:15:02;8.20;;;7.40;;
2542;SDS011;1116;51.502;7.414;2023-04-06T14:17:33;8.57;;;7.37;;
2542;SDS011;1116;51.502;7.414;2023-04-06T14:20:04;20.23;;;8.33;;
2542;SDS011;1116;51.502;7.414;2023-04-06T14:22:41;8.37;;;6.80;;
2542;SDS011;1116;51.502;7.414;2023-04-06T14:25:16;7.90;;;7.10;;
2542;SDS011;1116;51.502;7.414;2023-04-06T14:27:47;7.47;;;6.67;;
2542;SDS011;1116;51.502;7.414;2023-04-06T14:30:19;9.90;;;7.20;;
2542;SDS011;1116;51.502;7.414;2023-04-06T14:32:50;9.83;;;7.30;;
2542;SDS011;1116;51.502;7.414;2023-04-06T14:35:21;9.53;;;8.33;;
2542;SDS011;1116;51.502;7.414;2023-04-06T14:37:52;8.80;;;7.80;;
2542;SDS011;1116;51.502;7.414;2023-04-06T14:40:26;15.30;;;10.67;;
2542;SDS011;1116;51.502;7.414;2023-04-06T14:42:57;11.90;;;10.13;;
2542;SDS011;1116;51.502;7.414;2023-04-06T14:45:32;9.90;;;8.83;;
2542;SDS011;1116;51.502;7.414;2023-04-06T14:48:06;10.37;;;9.27;;
2542;SDS011;1116;51.502;7.414;2023-04-06T14:50:40;10.23;;;8.63;;
2542;SDS011;1116;51.502;7.414;2023-04-06T14:53:14;10.90;;;9.73;;
2542;SDS011;1116;51.502;7.414;2023-04-06T14:55:48;12.20;;;9.90;;
2542;SDS011;1116;51.502;7.414;2023-04-06T14:58:20;13.50;;;9.77;;
2542;SDS011;1116;51.502;7.414;2023-04-06T15:00:54;11.63;;;9.43;;
2542;SDS011;1116;51.502;7.414;2023-04-06T15:03:29;10.80;;;9.70;;
2542;SDS011;1116;51.502;7.414;2023-04-06T15:06:00;11.47;;;10.17;;
2542;SDS011;1116;51.502;7.414;2023-04-06T15:08:32;13.70;;;10.20;;
2542;SDS011;1116;51.502;7.414;2023-04-06T15:11:06;12.13;;;10.13;;
2542;SDS011;1116;51.502;7.414;2023-04-06T15:13:38;10.17;;;8.83;;
2542;SDS011;1116;51.502;7.414;2023-04-06T15:16:10;12.10;;;9.23;;
2542;SDS011;1116;51.502;7.414;2023-04-06T15:18:41;11.57;;;9.80;;
2542;SDS011;1116;51.502;7.414;2023-04-06T15:21:16;12.40;;;10.30;;
2542;SDS011;1116;51.502;7.414;2023-04-06T15:23:48;12.73;;;10.10;;
2542;SDS011;1116;51.502;7.414;2023-04-06T15:26:23;11.90;;;9.97;;
2542;SDS011;1116;51.502;7.414;2023-04-06T15:28:54;14.93;;;10.60;;
2542;SDS011;1116;51.502;7.414;2023-04-06T15:31:25;13.47;;;10.73;;